Time;durP1;ratioP1;P1;durP2;ratioP2;P2;SDS_P1;SDS_P2;PMS_P1;PMS_P2;Temp;Humidity;BMP_temperature;BMP_pressure;BME280_temperature;BME280_humidity;BME280_pressure;Samples;Min_cycle;Max_cycle;Signal;HPM_P1;HPM_P2
2022/06/18 00:01:52;;;;;;;7.63;4.00;;;;;;;;;;4950313;28;20054;-78
2022/06/18 00:04:21;;;;;;;8.52;4.15;;;;;;;;;;4949014;28;20162;-78
2022/06/18 00:07:00;;;;;;;5.45;3.60;;;;;;;;;;4962588;28;20047;-78
2022/06/18 00:09:33;;;;;;;8.05;3.47;;;;;;;;;;4949749;28;20093;-79
2022/06/18 00:14:48;;;;;;;7.57;3.90;;;;;;;;;;4965766;28;20515;-79
2022/06/18 00:17:16;;;;;;;4.35;3.70;;;;;;;;;;4949144;28;20137;-78
2022/06/18 00:19:45;;;;;;;8.20;3.97;;;;;;;;;;4947193;28;20441;-78
2022/06/18 00:22:17;;;;;;;6.65;4.03;;;;;;;;;;4965411;28;20471;-79
2022/06/18 00:24:45;;;;;;;5.75;4.05;;;;;;;;;;4959951;28;20146;-78
2022/06/18 00:27:13;;;;;;;8.50;4.60;;;;;;;;;;4953819;28;20161;-79
2022/06/18 00:29:41;;;;;;;4.35;3.90;;;;;;;;;;4949340;28;20046;-79
2022/06/18 00:32:09;;;;;;;6.80;4.60;;;;;;;;;;4966416;28;20141;-79
2022/06/18 00:34:38;;;;;;;7.47;4.18;;;;;;;;;;4942058;28;20062;-79
2022/06/18 00:37:05;;;;;;;8.52;4.10;;;;;;;;;;4948334;28;20635;-79
2022/06/18 00:39:33;;;;;;;8.60;4.35;;;;;;;;;;4948884;28;20105;-79
2022/06/18 00:42:04;;;;;;;6.20;3.95;;;;;;;;;;4949499;28;20075;-79
2022/06/18 00:44:33;;;;;;;16.42;4.65;;;;;;;;;;4967279;28;20086;-78
2022/06/18 00:47:19;;;;;;;4.65;3.47;;;;;;;;;;4952749;28;20166;-79
2022/06/18 00:49:52;;;;;;;5.68;4.15;;;;;;;;;;4960218;28;20059;-78
2022/06/18 00:52:40;;;;;;;5.53;3.85;;;;;;;;;;4962768;28;20521;-78
2022/06/18 00:55:13;;;;;;;6.65;3.67;;;;;;;;;;4949126;28;20566;-78
2022/06/18 00:57:59;;;;;;;8.13;3.85;;;;;;;;;;4949169;28;20172;-79
2022/06/18 01:00:28;;;;;;;;;;;;;;;;;;4953718;28;20508;-79
2022/06/18 01:02:56;;;;;;;8.07;4.13;;;;;;;;;;4965843;28;19989;-78
2022/06/18 01:05:25;;;;;;;6.50;3.38;;;;;;;;;;4947575;28;20050;-79
2022/06/18 01:07:55;;;;;;;5.18;3.72;;;;;;;;;;4963353;28;20079;-79
2022/06/18 01:10:28;;;;;;;5.25;3.40;;;;;;;;;;4965211;28;20078;-78
2022/06/18 01:12:56;;;;;;;5.90;3.28;;;;;;;;;;4966027;28;20920;-78
2022/06/18 01:15:24;;;;;;;5.35;3.72;;;;;;;;;;4947998;28;20142;-78
2022/06/18 01:17:53;;;;;;;5.10;4.10;;;;;;;;;;4947909;28;20053;-78
2022/06/18 01:20:22;;;;;;;7.20;4.13;;;;;;;;;;4956230;28;20053;-79
2022/06/18 01:22:59;;;;;;;8.85;4.25;;;;;;;;;;4952493;28;20477;-79
2022/06/18 01:25:28;;;;;;;7.88;4.25;;;;;;;;;;4969251;28;20526;-78
2022/06/18 01:27:55;;;;;;;7.38;3.80;;;;;;;;;;4952993;28;20054;-78
2022/06/18 01:30:25;;;;;;;5.32;3.90;;;;;;;;;;4950537;28;20133;-79
2022/06/18 01:32:54;;;;;;;7.35;4.68;;;;;;;;;;4940699;29;20130;-78
2022/06/18 01:35:22;;;;;;;6.78;3.97;;;;;;;;;;4950462;28;20164;-79
2022/06/18 01:37:50;;;;;;;7.95;3.92;;;;;;;;;;4969374;28;20141;-79
2022/06/18 01:40:21;;;;;;;8.65;3.92;;;;;;;;;;4952157;28;20707;-79
2022/06/18 01:42:49;;;;;;;8.23;4.00;;;;;;;;;;4952208;28;20125;-79
2022/06/18 01:45:22;;;;;;;8.25;3.67;;;;;;;;;;4950070;28;20050;-78
2022/06/18 01:47:56;;;;;;;5.40;3.58;;;;;;;;;;4951297;28;20087;-78
2022/06/18 01:50:29;;;;;;;9.40;3.60;;;;;;;;;;4957277;28;20599;-79
2022/06/18 01:53:16;;;;;;;6.43;3.40;;;;;;;;;;4955509;28;20134;-79
2022/06/18 01:55:46;;;;;;;9.45;3.13;;;;;;;;;;4951932;28;20043;-79
2022/06/18 01:58:16;;;;;;;6.00;3.58;;;;;;;;;;4950279;28;20086;-79
2022/06/18 02:00:45;;;;;;;9.45;3.72;;;;;;;;;;4938835;28;20082;-78
2022/06/18 02:03:13;;;;;;;7.63;2.95;;;;;;;;;;4968378;28;20126;-79
2022/06/18 02:05:41;;;;;;;9.18;3.22;;;;;;;;;;4951527;28;20065;-79
2022/06/18 02:08:09;;;;;;;5.95;3.28;;;;;;;;;;4951862;28;20145;-78
2022/06/18 02:10:39;;;;;;;8.07;3.08;;;;;;;;;;4963822;28;20078;-79
2022/06/18 02:13:07;;;;;;;5.07;3.20;;;;;;;;;;4933723;29;20150;-78
2022/06/18 02:15:43;;;;;;;6.18;2.97;;;;;;;;;;4951480;28;20051;-78
2022/06/18 02:18:12;;;;;;;7.07;3.38;;;;;;;;;;4951727;28;20043;-78
2022/06/18 02:20:45;;;;;;;7.65;3.20;;;;;;;;;;4968485;28;20121;-78
2022/06/18 02:23:13;;;;;;;3.95;3.03;;;;;;;;;;4969100;28;20054;-79
2022/06/18 02:25:40;;;;;;;5.05;2.75;;;;;;;;;;4968635;28;20130;-79
2022/06/18 02:28:16;;;;;;;6.75;3.00;;;;;;;;;;4967342;28;20082;-78
2022/06/18 02:30:44;;;;;;;5.03;3.00;;;;;;;;;;4950246;28;20129;-79
2022/06/18 02:33:17;;;;;;;9.57;3.17;;;;;;;;;;4968874;28;20061;-79
2022/06/18 02:35:44;;;;;;;6.70;2.80;;;;;;;;;;4952000;28;20085;-79
2022/06/18 02:38:16;;;;;;;4.35;2.67;;;;;;;;;;4952173;28;20093;-79
2022/06/18 02:40:44;;;;;;;5.28;2.80;;;;;;;;;;4965906;28;20551;-79
2022/06/18 02:43:12;;;;;;;5.90;2.70;;;;;;;;;;4952366;28;20145;-78
2022/06/18 02:45:40;;;;;;;3.83;2.63;;;;;;;;;;4952163;28;20813;-79
2022/06/18 02:48:11;;;;;;;4.65;2.72;;;;;;;;;;4968738;28;20058;-79
2022/06/18 02:50:40;;;;;;;6.68;2.50;;;;;;;;;;4951487;28;20130;-79
2022/06/18 02:53:09;;;;;;;3.95;2.65;;;;;;;;;;4951741;28;20844;-79
2022/06/18 02:55:45;;;;;;;5.13;2.65;;;;;;;;;;4966318;28;20142;-79
2022/06/18 02:58:17;;;;;;;3.05;2.33;;;;;;;;;;4959089;28;20075;-79
2022/06/18 03:00:46;;;;;;;4.18;2.50;;;;;;;;;;4939493;28;20543;-80
2022/06/18 03:03:15;;;;;;;5.10;3.00;;;;;;;;;;4951457;28;20078;-79
2022/06/18 03:05:43;;;;;;;5.03;2.85;;;;;;;;;;4950464;28;20137;-79
2022/06/18 03:08:10;;;;;;;13.60;4.25;;;;;;;;;;4951474;28;20514;-79
2022/06/18 03:13:24;;;;;;;4.00;2.60;;;;;;;;;;4968910;28;20078;-79
2022/06/18 03:15:53;;;;;;;2.80;2.42;;;;;;;;;;4959128;28;20236;-79
2022/06/18 03:18:21;;;;;;;3.45;2.58;;;;;;;;;;4942377;28;20400;-79
2022/06/18 03:20:56;;;;;;;5.57;2.83;;;;;;;;;;4968071;28;20487;-79
2022/06/18 03:23:23;;;;;;;9.50;2.77;;;;;;;;;;4950807;28;20065;-78
2022/06/18 03:25:51;;;;;;;3.92;2.60;;;;;;;;;;4948860;28;20090;-78
2022/06/18 03:28:19;;;;;;;11.40;2.53;;;;;;;;;;4966603;28;20082;-78
2022/06/18 03:30:46;;;;;;;6.07;2.72;;;;;;;;;;4960591;28;20086;-79
2022/06/18 03:33:14;;;;;;;2.92;2.20;;;;;;;;;;4950648;28;20146;-79
2022/06/18 03:35:43;;;;;;;4.97;2.35;;;;;;;;;;4949383;28;20158;-79
2022/06/18 03:38:11;;;;;;;3.85;2.72;;;;;;;;;;4947850;28;20133;-79
2022/06/18 03:40:38;;;;;;;8.52;2.78;;;;;;;;;;4967452;28;20133;-79
2022/06/18 03:43:06;;;;;;;6.78;2.78;;;;;;;;;;4950973;28;20106;-79
2022/06/18 03:45:44;;;;;;;2.65;2.28;;;;;;;;;;4950375;28;20075;-79
2022/06/18 03:48:24;;;;;;;5.47;2.72;;;;;;;;;;4931809;29;20051;-79
2022/06/18 03:50:51;;;;;;;4.78;2.42;;;;;;;;;;4966372;28;20058;-79
2022/06/18 03:53:18;;;;;;;5.53;2.60;;;;;;;;;;4934779;28;20125;-79
2022/06/18 03:55:48;;;;;;;4.85;2.10;;;;;;;;;;4966515;28;20134;-79
2022/06/18 03:58:16;;;;;;;4.47;2.20;;;;;;;;;;4967611;28;20801;-79
2022/06/18 04:00:43;;;;;;;4.40;2.10;;;;;;;;;;4949827;28;20078;-79
2022/06/18 04:03:11;;;;;;;3.50;2.40;;;;;;;;;;4949377;28;20189;-78
2022/06/18 04:05:40;;;;;;;4.45;2.35;;;;;;;;;;4964762;28;20057;-78
2022/06/18 04:08:08;;;;;;;4.68;2.40;;;;;;;;;;4966622;28;20158;-79
2022/06/18 04:10:35;;;;;;;4.47;2.20;;;;;;;;;;4946532;28;20143;-79
2022/06/18 04:13:02;;;;;;;6.30;2.40;;;;;;;;;;4933604;28;20159;-78
2022/06/18 04:15:30;;;;;;;4.68;2.92;;;;;;;;;;4949285;28;20085;-79
2022/06/18 04:17:57;;;;;;;5.28;2.95;;;;;;;;;;4966957;28;20050;-79
2022/06/18 04:20:29;;;;;;;3.78;2.63;;;;;;;;;;4966891;28;20563;-78
2022/06/18 04:22:57;;;;;;;7.10;2.20;;;;;;;;;;4948717;28;20842;-79
2022/06/18 04:25:25;;;;;;;4.95;2.58;;;;;;;;;;4951742;28;20050;-79
2022/06/18 04:27:56;;;;;;;3.38;2.60;;;;;;;;;;4947867;28;20702;-79
2022/06/18 04:30:27;;;;;;;4.30;2.75;;;;;;;;;;4949853;28;20042;-79
2022/06/18 04:32:55;;;;;;;5.00;2.72;;;;;;;;;;4957251;28;20529;-79
2022/06/18 04:35:23;;;;;;;4.65;2.38;;;;;;;;;;4955236;28;20153;-79
2022/06/18 04:37:50;;;;;;;5.45;2.38;;;;;;;;;;4966240;28;20153;-79
2022/06/18 04:40:19;;;;;;;5.72;3.03;;;;;;;;;;4963915;28;20166;-79
2022/06/18 04:43:07;;;;;;;6.90;2.30;;;;;;;;;;4964685;28;20053;-79
2022/06/18 04:45:36;;;;;;;3.80;2.40;;;;;;;;;;4947568;28;20141;-79
2022/06/18 04:48:04;;;;;;;5.47;2.90;;;;;;;;;;4951325;28;20083;-78
2022/06/18 04:50:33;;;;;;;7.00;2.88;;;;;;;;;;4965672;28;20142;-78
2022/06/18 04:53:01;;;;;;;4.10;2.80;;;;;;;;;;4949178;28;20079;-78
2022/06/18 04:55:28;;;;;;;5.80;2.58;;;;;;;;;;4960949;28;20125;-78
2022/06/18 04:57:56;;;;;;;4.00;3.08;;;;;;;;;;4953621;28;20150;-78
2022/06/18 05:00:23;;;;;;;6.32;2.72;;;;;;;;;;4966835;28;20128;-78
2022/06/18 05:02:51;;;;;;;13.13;2.58;;;;;;;;;;4970494;28;20782;-78
2022/06/18 05:05:23;;;;;;;14.30;2.92;;;;;;;;;;4973520;28;20049;-79
2022/06/18 05:07:50;;;;;;;13.27;2.60;;;;;;;;;;4957212;28;20078;-80
2022/06/18 05:10:18;;;;;;;4.82;2.60;;;;;;;;;;4951580;28;20050;-79
2022/06/18 05:12:45;;;;;;;3.78;2.28;;;;;;;;;;4953677;28;20780;-79
2022/06/18 05:15:13;;;;;;;3.00;2.47;;;;;;;;;;4953781;28;20082;-79
2022/06/18 05:17:43;;;;;;;5.43;2.70;;;;;;;;;;4951925;28;20660;-79
2022/06/18 05:20:13;;;;;;;4.85;2.63;;;;;;;;;;4955578;28;20049;-78
2022/06/18 05:22:40;;;;;;;3.75;2.47;;;;;;;;;;4952402;28;20165;-79
2022/06/18 05:25:08;;;;;;;2.50;2.20;;;;;;;;;;4965988;28;20915;-79
2022/06/18 05:27:36;;;;;;;10.20;2.47;;;;;;;;;;4962341;28;20082;-79
2022/06/18 05:30:05;;;;;;;6.60;2.40;;;;;;;;;;4952094;28;20075;-78
2022/06/18 05:32:32;;;;;;;5.32;2.40;;;;;;;;;;4954883;28;20055;-79
2022/06/18 05:35:00;;;;;;;4.53;2.30;;;;;;;;;;4956355;28;20062;-79
2022/06/18 05:37:28;;;;;;;4.13;2.42;;;;;;;;;;4960084;28;20086;-78
2022/06/18 05:39:56;;;;;;;3.95;2.45;;;;;;;;;;4969414;28;20054;-78
2022/06/18 05:42:23;;;;;;;5.35;2.42;;;;;;;;;;4951628;28;20556;-78
2022/06/18 05:44:51;;;;;;;5.50;2.53;;;;;;;;;;4965117;28;20165;-79
2022/06/18 05:47:25;;;;;;;7.13;2.60;;;;;;;;;;4951899;28;20067;-79
2022/06/18 05:49:53;;;;;;;3.10;2.35;;;;;;;;;;4964770;28;20082;-79
2022/06/18 05:52:21;;;;;;;3.67;2.40;;;;;;;;;;4968138;28;20570;-79
2022/06/18 05:54:51;;;;;;;3.55;2.28;;;;;;;;;;4950017;28;20145;-78
2022/06/18 05:57:21;;;;;;;5.93;2.20;;;;;;;;;;4968655;28;20130;-79
2022/06/18 05:59:49;;;;;;;4.93;2.50;;;;;;;;;;4953929;28;20560;-79
2022/06/18 06:02:17;;;;;;;5.18;2.47;;;;;;;;;;4953062;28;20453;-79
2022/06/18 06:04:46;;;;;;;4.28;2.80;;;;;;;;;;4936824;28;20142;-79
2022/06/18 06:07:14;;;;;;;3.03;2.33;;;;;;;;;;4968297;28;20046;-79
2022/06/18 06:12:28;;;;;;;5.95;2.78;;;;;;;;;;4967016;28;20086;-79
2022/06/18 06:14:56;;;;;;;3.15;2.35;;;;;;;;;;4967748;28;20511;-79
2022/06/18 06:17:24;;;;;;;12.63;2.70;;;;;;;;;;4950413;28;20063;-79
2022/06/18 06:19:58;;;;;;;7.85;2.72;;;;;;;;;;4949871;28;20472;-78
2022/06/18 06:22:26;;;;;;;7.00;2.65;;;;;;;;;;4949862;28;20054;-78
2022/06/18 06:24:53;;;;;;;12.25;2.40;;;;;;;;;;4966063;28;20141;-79
2022/06/18 06:27:21;;;;;;;3.05;2.47;;;;;;;;;;4950766;28;20146;-80
2022/06/18 06:29:48;;;;;;;4.13;2.78;;;;;;;;;;4950178;28;20134;-79
2022/06/18 06:32:15;;;;;;;9.80;2.40;;;;;;;;;;4949836;28;20083;-78
2022/06/18 06:34:43;;;;;;;11.30;2.58;;;;;;;;;;4948610;28;20059;-78
2022/06/18 06:37:10;;;;;;;4.32;2.70;;;;;;;;;;4966419;28;20166;-78
2022/06/18 06:39:38;;;;;;;9.07;2.47;;;;;;;;;;4948229;28;20665;-79
2022/06/18 06:42:06;;;;;;;3.03;2.25;;;;;;;;;;4949231;28;20082;-76
2022/06/18 06:44:33;;;;;;;5.00;2.50;;;;;;;;;;4982053;28;20085;-76
2022/06/18 06:47:00;;;;;;;9.80;2.92;;;;;;;;;;4978090;28;20059;-78
2022/06/18 06:49:28;;;;;;;5.47;3.15;;;;;;;;;;4965680;28;20135;-76
2022/06/18 06:51:55;;;;;;;10.27;2.90;;;;;;;;;;4953790;28;20129;-77
2022/06/18 06:54:22;;;;;;;7.85;2.50;;;;;;;;;;4967363;28;20082;-77
2022/06/18 06:59:36;;;;;;;3.88;2.70;;;;;;;;;;4958865;28;20126;-77
2022/06/18 07:02:03;;;;;;;5.72;2.55;;;;;;;;;;4953109;28;20555;-78
2022/06/18 07:04:31;;;;;;;16.90;2.90;;;;;;;;;;4948015;28;20066;-77
2022/06/18 07:06:58;;;;;;;4.45;2.58;;;;;;;;;;4964860;28;20057;-77
2022/06/18 07:09:25;;;;;;;4.35;2.40;;;;;;;;;;4949675;28;20130;-77
2022/06/18 07:11:53;;;;;;;10.50;2.65;;;;;;;;;;4966948;28;20142;-77
2022/06/18 07:14:20;;;;;;;4.07;2.20;;;;;;;;;;4946739;28;20102;-77
2022/06/18 07:16:51;;;;;;;9.15;2.45;;;;;;;;;;4963261;28;20661;-77
2022/06/18 07:19:19;;;;;;;5.95;2.33;;;;;;;;;;4965897;28;20077;-77
2022/06/18 07:21:50;;;;;;;3.95;2.38;;;;;;;;;;4956127;28;20239;-77
2022/06/18 07:24:17;;;;;;;9.82;2.55;;;;;;;;;;4948795;28;20712;-77
2022/06/18 07:26:45;;;;;;;4.05;2.28;;;;;;;;;;4947334;28;20054;-77
2022/06/18 07:29:13;;;;;;;11.15;3.17;;;;;;;;;;4966524;28;20078;-77
2022/06/18 07:31:40;;;;;;;5.53;2.60;;;;;;;;;;4962279;28;20133;-77
2022/06/18 07:34:08;;;;;;;4.30;2.47;;;;;;;;;;4949405;28;20169;-77
2022/06/18 07:36:35;;;;;;;6.70;3.05;;;;;;;;;;4948807;28;20086;-77
2022/06/18 07:39:04;;;;;;;5.65;2.63;;;;;;;;;;4964394;28;20094;-77
2022/06/18 07:41:42;;;;;;;6.93;2.88;;;;;;;;;;4961837;28;20846;-77
2022/06/18 07:44:09;;;;;;;5.00;2.50;;;;;;;;;;4957262;28;20074;-77
2022/06/18 07:46:37;;;;;;;5.57;2.70;;;;;;;;;;4964051;28;20051;-78
2022/06/18 07:49:05;;;;;;;2.63;2.28;;;;;;;;;;4947679;28;20051;-79
2022/06/18 07:51:33;;;;;;;9.43;2.95;;;;;;;;;;4951822;28;20825;-78
2022/06/18 07:54:00;;;;;;;3.42;2.20;;;;;;;;;;4963905;28;20748;-78
2022/06/18 07:56:27;;;;;;;10.85;2.45;;;;;;;;;;4966311;28;20090;-78
2022/06/18 07:58:54;;;;;;;7.50;2.50;;;;;;;;;;4947845;28;20152;-78
2022/06/18 08:01:22;;;;;;;38.83;4.63;;;;;;;;;;4963144;28;20472;-78
2022/06/18 08:03:49;;;;;;;5.07;2.88;;;;;;;;;;4963428;28;20082;-79
2022/06/18 08:06:17;;;;;;;10.82;3.10;;;;;;;;;;4963210;28;20097;-80
2022/06/18 08:08:44;;;;;;;9.65;2.80;;;;;;;;;;4984868;28;20405;-79
2022/06/18 08:11:14;;;;;;;9.63;2.95;;;;;;;;;;4953326;28;20082;-80
2022/06/18 08:13:41;;;;;;;7.05;2.58;;;;;;;;;;4984688;28;20140;-78
2022/06/18 08:16:10;;;;;;;4.57;2.50;;;;;;;;;;4961859;28;20118;-79
2022/06/18 08:18:38;;;;;;;18.08;2.92;;;;;;;;;;4957174;28;20181;-78
2022/06/18 08:21:14;;;;;;;6.85;2.42;;;;;;;;;;5119115;23;20183;-79
2022/06/18 08:23:41;;;;;;;6.03;2.53;;;;;;;;;;4929792;29;20871;-79
2022/06/18 08:26:09;;;;;;;8.48;2.70;;;;;;;;;;4921358;29;20489;-77
2022/06/18 08:28:37;;;;;;;13.75;2.90;;;;;;;;;;4910619;29;20825;-79
2022/06/18 08:31:05;;;;;;;6.70;3.13;;;;;;;;;;4944227;29;20079;-81
2022/06/18 08:33:33;;;;;;;7.47;2.97;;;;;;;;;;4944675;28;20527;-79
2022/06/18 08:36:01;;;;;;;10.00;3.30;;;;;;;;;;4948462;29;20887;-80
2022/06/18 08:38:29;;;;;;;9.63;3.47;;;;;;;;;;4946441;29;20492;-82
2022/06/18 08:41:06;;;;;;;5.53;2.80;;;;;;;;;;4930035;29;20110;-79
2022/06/18 08:43:33;;;;;;;13.93;3.00;;;;;;;;;;4931780;29;20090;-80
2022/06/18 08:46:16;;;;;;;8.60;3.10;;;;;;;;;;4949105;28;20134;-81
2022/06/18 08:48:56;;;;;;;3.65;2.80;;;;;;;;;;4954378;28;20051;-82
2022/06/18 08:51:55;;;;;;;5.03;2.92;;;;;;;;;;4932333;28;21002;-81
2022/06/18 08:54:23;;;;;;;15.65;2.80;;;;;;;;;;4880575;29;20152;-81
2022/06/18 08:56:56;;;;;;;10.85;2.78;;;;;;;;;;4928371;29;20047;-81
2022/06/18 08:59:30;;;;;;;8.68;3.05;;;;;;;;;;4945815;29;20075;-77
2022/06/18 09:02:06;;;;;;;8.38;2.50;;;;;;;;;;4930119;29;20139;-81
2022/06/18 09:04:36;;;;;;;6.40;2.78;;;;;;;;;;4947146;29;20134;-79
2022/06/18 09:07:22;;;;;;;7.63;2.63;;;;;;;;;;4945682;29;20083;-79
2022/06/18 09:09:49;;;;;;;5.78;2.55;;;;;;;;;;4946473;29;20162;-81
2022/06/18 09:12:20;;;;;;;6.38;3.15;;;;;;;;;;4947607;29;20142;-79
2022/06/18 09:14:52;;;;;;;5.50;2.50;;;;;;;;;;4946747;29;20057;-79
2022/06/18 09:17:22;;;;;;;5.82;2.78;;;;;;;;;;4943752;29;20511;-79
2022/06/18 09:20:13;;;;;;;5.60;2.72;;;;;;;;;;4946375;29;20094;-80
2022/06/18 09:22:43;;;;;;;7.53;3.15;;;;;;;;;;4920626;29;20082;-79
2022/06/18 09:25:17;;;;;;;5.25;2.92;;;;;;;;;;4944953;29;20079;-79
2022/06/18 09:27:58;;;;;;;8.55;2.90;;;;;;;;;;4939309;28;20056;-79
2022/06/18 09:30:44;;;;;;;11.45;3.22;;;;;;;;;;4910796;29;20257;-79
2022/06/18 09:33:23;;;;;;;9.38;3.70;;;;;;;;;;4941830;29;20055;-79
2022/06/18 09:35:55;;;;;;;9.45;2.90;;;;;;;;;;4947288;29;20079;-79
2022/06/18 09:38:40;;;;;;;9.75;2.72;;;;;;;;;;4946069;28;20138;-79
2022/06/18 09:41:15;;;;;;;6.13;2.63;;;;;;;;;;4936883;28;20086;-79
2022/06/18 09:43:52;;;;;;;9.05;3.53;;;;;;;;;;4933247;29;20134;-80
2022/06/18 09:46:24;;;;;;;12.38;3.25;;;;;;;;;;4950501;29;20121;-80
2022/06/18 09:48:51;;;;;;;11.98;3.15;;;;;;;;;;4950903;29;20059;-80
2022/06/18 09:51:28;;;;;;;6.70;2.90;;;;;;;;;;4949248;29;20649;-79
2022/06/18 09:53:59;;;;;;;6.97;3.05;;;;;;;;;;4938694;29;20134;-80
2022/06/18 09:56:39;;;;;;;7.65;2.65;;;;;;;;;;4949899;29;20551;-80
2022/06/18 09:59:18;;;;;;;8.57;2.58;;;;;;;;;;4945708;28;20122;-80
2022/06/18 10:01:46;;;;;;;9.65;3.13;;;;;;;;;;4948365;28;20134;-85
2022/06/18 10:07:05;;;;;;;5.63;2.75;;;;;;;;;;4942847;29;20167;-81
2022/06/18 10:09:41;;;;;;;9.30;3.15;;;;;;;;;;4941137;28;20054;-80
2022/06/18 10:12:17;;;;;;;8.88;2.97;;;;;;;;;;4942304;29;20918;-78
2022/06/18 10:14:47;;;;;;;9.52;3.03;;;;;;;;;;4945766;29;20059;-79
2022/06/18 10:17:14;;;;;;;10.00;2.83;;;;;;;;;;4928372;29;20508;-79
2022/06/18 10:19:44;;;;;;;13.30;3.10;;;;;;;;;;4948878;29;20087;-78
2022/06/18 10:22:11;;;;;;;8.73;3.10;;;;;;;;;;4947783;29;20177;-79
2022/06/18 10:24:57;;;;;;;8.75;3.10;;;;;;;;;;4948961;29;20541;-78
2022/06/18 10:27:31;;;;;;;10.13;3.40;;;;;;;;;;4947155;29;20911;-78
2022/06/18 10:30:03;;;;;;;9.50;3.25;;;;;;;;;;4945923;29;20121;-79
2022/06/18 10:32:37;;;;;;;8.23;3.38;;;;;;;;;;4948545;29;20087;-81
2022/06/18 10:35:10;;;;;;;9.50;3.50;;;;;;;;;;4942793;29;20079;-80
2022/06/18 10:37:58;;;;;;;23.33;3.60;;;;;;;;;;4944832;29;20076;-79
2022/06/18 10:40:50;;;;;;;8.75;3.40;;;;;;;;;;4943414;29;20047;-80
2022/06/18 10:43:26;;;;;;;12.82;3.53;;;;;;;;;;4944912;29;20079;-79
2022/06/18 10:45:56;;;;;;;6.57;3.53;;;;;;;;;;4948723;29;20106;-79
2022/06/18 10:48:28;;;;;;;8.13;3.38;;;;;;;;;;4930510;29;20074;-79
2022/06/18 10:50:57;;;;;;;10.20;3.33;;;;;;;;;;4946249;28;20838;-80
2022/06/18 10:53:27;;;;;;;9.13;4.00;;;;;;;;;;4927026;29;20062;-79
2022/06/18 10:56:00;;;;;;;8.07;3.58;;;;;;;;;;4942847;28;20141;-80
2022/06/18 10:58:27;;;;;;;9.88;3.35;;;;;;;;;;4913914;29;20147;-80
2022/06/18 11:00:59;;;;;;;16.20;3.67;;;;;;;;;;4952015;29;20093;-78
2022/06/18 11:03:31;;;;;;;9.68;3.17;;;;;;;;;;4948736;29;20058;-78
2022/06/18 11:05:59;;;;;;;12.93;4.32;;;;;;;;;;4948980;29;20054;-78
2022/06/18 11:08:31;;;;;;;7.82;3.70;;;;;;;;;;4948952;29;20147;-78
2022/06/18 11:11:03;;;;;;;13.20;3.92;;;;;;;;;;4932243;29;20083;-77
2022/06/18 11:13:35;;;;;;;9.70;3.50;;;;;;;;;;4939599;29;20109;-82
2022/06/18 11:16:11;;;;;;;7.43;3.47;;;;;;;;;;4953299;29;20129;-90
2022/06/18 11:18:44;;;;;;;12.93;3.65;;;;;;;;;;4939944;29;20070;-81
2022/06/18 11:21:17;;;;;;;9.00;3.17;;;;;;;;;;4937683;29;20083;-81
2022/06/18 11:23:48;;;;;;;10.38;3.80;;;;;;;;;;4929892;29;20171;-81
2022/06/18 11:26:36;;;;;;;12.50;3.97;;;;;;;;;;4930256;29;20070;-80
2022/06/18 11:29:10;;;;;;;10.15;4.00;;;;;;;;;;4929953;29;20620;-80
2022/06/18 11:31:37;;;;;;;;;;;;;;;;;;4928213;29;20130;-81
2022/06/18 11:34:16;;;;;;;7.32;3.40;;;;;;;;;;4952876;29;19922;-81
2022/06/18 11:36:50;;;;;;;14.68;4.13;;;;;;;;;;4952473;29;20110;-82
2022/06/18 11:39:18;;;;;;;;;;;;;;;;;;4949607;29;20791;-82
2022/06/18 11:41:46;;;;;;;11.93;3.70;;;;;;;;;;4950498;29;20085;-82
2022/06/18 11:44:13;;;;;;;12.27;3.38;;;;;;;;;;4951065;29;20170;-82
2022/06/18 11:46:51;;;;;;;12.88;4.03;;;;;;;;;;4949018;29;20081;-81
2022/06/18 11:49:21;;;;;;;6.60;3.90;;;;;;;;;;4931611;29;20060;-82
2022/06/18 11:51:56;;;;;;;14.30;4.28;;;;;;;;;;4931279;29;20146;-82
2022/06/18 11:54:27;;;;;;;6.80;3.70;;;;;;;;;;4930798;29;20083;-81
2022/06/18 11:56:55;;;;;;;6.32;3.90;;;;;;;;;;4931002;29;20051;-82
2022/06/18 11:59:28;;;;;;;14.20;4.32;;;;;;;;;;4931261;29;20079;-81
2022/06/18 12:02:01;;;;;;;5.03;3.70;;;;;;;;;;4930848;29;20094;-81
2022/06/18 12:04:55;;;;;;;10.18;3.55;;;;;;;;;;4938758;29;20142;-82
2022/06/18 12:07:27;;;;;;;7.00;3.35;;;;;;;;;;4931143;29;20146;-81
2022/06/18 12:09:54;;;;;;;11.57;3.80;;;;;;;;;;4949674;29;20083;-81
2022/06/18 12:12:40;;;;;;;7.80;3.22;;;;;;;;;;4949832;29;20451;-82
2022/06/18 12:15:08;;;;;;;13.93;3.55;;;;;;;;;;4949706;29;20102;-81
2022/06/18 12:17:37;;;;;;;8.63;3.42;;;;;;;;;;4951155;29;20114;-82
2022/06/18 12:20:11;;;;;;;10.68;3.78;;;;;;;;;;4946753;29;20083;-81
2022/06/18 12:22:38;;;;;;;7.25;3.53;;;;;;;;;;4930829;29;20079;-82
2022/06/18 12:25:08;;;;;;;26.58;4.72;;;;;;;;;;4914133;29;20139;-82
2022/06/18 12:27:41;;;;;;;9.02;4.28;;;;;;;;;;4931139;29;20097;-82
2022/06/18 12:30:22;;;;;;;7.60;3.50;;;;;;;;;;4930474;29;20079;-82
2022/06/18 12:32:54;;;;;;;12.65;3.60;;;;;;;;;;4914538;29;20087;-81
2022/06/18 12:35:28;;;;;;;9.23;3.30;;;;;;;;;;4931702;29;20109;-82
2022/06/18 12:38:14;;;;;;;79.85;7.13;;;;;;;;;;4931513;29;20091;-81
2022/06/18 12:40:41;;;;;;;12.13;3.45;;;;;;;;;;4913986;29;20418;-81
2022/06/18 12:43:16;;;;;;;13.85;3.80;;;;;;;;;;4931154;29;20167;-81
2022/06/18 12:46:03;;;;;;;9.20;4.03;;;;;;;;;;4914194;29;20102;-82
2022/06/18 12:48:33;;;;;;;11.18;3.70;;;;;;;;;;4930987;29;20174;-82
2022/06/18 12:51:06;;;;;;;16.15;4.00;;;;;;;;;;4931333;29;20098;-83
2022/06/18 12:53:56;;;;;;;6.75;4.10;;;;;;;;;;4930906;29;20233;-81
2022/06/18 12:56:36;;;;;;;15.63;4.20;;;;;;;;;;4950091;29;20453;-80
2022/06/18 12:59:16;;;;;;;23.95;4.40;;;;;;;;;;4949571;29;20126;-80
2022/06/18 13:01:53;;;;;;;6.03;3.50;;;;;;;;;;4949175;29;20142;-80
2022/06/18 13:04:37;;;;;;;9.95;3.30;;;;;;;;;;4949194;29;20615;-83
2022/06/18 13:07:14;;;;;;;8.80;4.32;;;;;;;;;;4947748;29;20144;-81
2022/06/18 13:09:55;;;;;;;9.13;3.90;;;;;;;;;;4949886;29;20130;-80
2022/06/18 13:12:26;;;;;;;5.57;3.30;;;;;;;;;;4950102;29;20134;-82
2022/06/18 13:18:16;;;;;;;9.30;4.00;;;;;;;;;;4939898;28;20572;-82
2022/06/18 13:20:46;;;;;;;11.45;4.25;;;;;;;;;;4952357;29;20462;-80
2022/06/18 13:28:53;;;;;;;8.20;3.88;;;;;;;;;;4949931;29;20121;-80
2022/06/18 13:31:39;;;;;;;9.32;3.33;;;;;;;;;;4950759;29;20098;-80
2022/06/18 13:34:11;;;;;;;10.40;3.92;;;;;;;;;;4952369;29;20093;-80
2022/06/18 13:36:45;;;;;;;10.60;3.45;;;;;;;;;;4935062;29;20058;-81
2022/06/18 13:39:44;;;;;;;9.30;3.83;;;;;;;;;;4952174;29;20570;-81
2022/06/18 13:42:40;;;;;;;8.13;4.15;;;;;;;;;;4914569;29;20134;-80
2022/06/18 13:45:10;;;;;;;4.80;3.15;;;;;;;;;;4946843;29;20051;-82
2022/06/18 13:47:42;;;;;;;14.07;3.90;;;;;;;;;;4949816;29;20054;-82
2022/06/18 13:50:25;;;;;;;8.02;4.10;;;;;;;;;;4941764;28;20073;-81
2022/06/18 13:52:52;;;;;;;6.43;3.75;;;;;;;;;;4945886;28;20236;-79
2022/06/18 13:55:34;;;;;;;5.63;2.97;;;;;;;;;;4943818;29;20061;-79
2022/06/18 13:58:02;;;;;;;10.85;3.60;;;;;;;;;;4942113;29;20177;-78
2022/06/18 14:00:31;;;;;;;9.45;3.22;;;;;;;;;;4927796;29;20166;-79
2022/06/18 14:03:01;;;;;;;8.25;3.33;;;;;;;;;;4946789;29;20082;-80
2022/06/18 14:05:40;;;;;;;12.20;3.50;;;;;;;;;;4922311;29;20059;-76
2022/06/18 14:08:20;;;;;;;6.78;2.90;;;;;;;;;;4944698;29;20138;-76
2022/06/18 14:10:48;;;;;;;18.17;3.95;;;;;;;;;;4926729;29;20255;-79
2022/06/18 14:13:21;;;;;;;8.88;3.33;;;;;;;;;;4948485;28;20464;-79
2022/06/18 14:16:06;;;;;;;20.95;4.53;;;;;;;;;;4941683;28;20070;-79
2022/06/18 14:18:34;;;;;;;27.52;5.07;;;;;;;;;;4948067;29;20154;-79
2022/06/18 14:21:09;;;;;;;18.58;3.80;;;;;;;;;;4947564;29;20090;-78
2022/06/18 14:23:38;;;;;;;9.65;2.53;;;;;;;;;;4947456;29;20051;-78
2022/06/18 14:26:06;;;;;;;14.05;3.10;;;;;;;;;;4930726;29;20051;-80
2022/06/18 14:28:38;;;;;;;6.63;2.70;;;;;;;;;;4949371;29;20835;-79
2022/06/18 14:31:18;;;;;;;7.15;2.85;;;;;;;;;;4948255;28;20059;-77
2022/06/18 14:34:02;;;;;;;8.63;2.92;;;;;;;;;;4949619;29;20110;-77
2022/06/18 14:36:33;;;;;;;14.32;2.60;;;;;;;;;;4942384;29;20087;-77
2022/06/18 14:39:02;;;;;;;7.40;2.67;;;;;;;;;;4930799;29;20095;-78
2022/06/18 14:41:34;;;;;;;19.33;2.80;;;;;;;;;;4931745;29;20113;-78
2022/06/18 14:44:23;;;;;;;7.57;3.03;;;;;;;;;;4948789;29;20058;-78
2022/06/18 14:47:05;;;;;;;7.20;2.88;;;;;;;;;;4949954;29;20383;-77
2022/06/18 14:49:58;;;;;;;8.35;3.17;;;;;;;;;;4932335;29;20173;-75
2022/06/18 14:52:36;;;;;;;5.78;2.60;;;;;;;;;;4951623;28;20393;-76
2022/06/18 14:55:08;;;;;;;6.10;2.80;;;;;;;;;;4941262;29;20142;-81
2022/06/18 14:57:59;;;;;;;29.75;3.30;;;;;;;;;;4946597;29;20051;-76
2022/06/18 15:00:53;;;;;;;6.35;2.95;;;;;;;;;;4931495;29;20102;-77
2022/06/18 15:03:32;;;;;;;8.85;2.97;;;;;;;;;;4926921;29;20060;-77
2022/06/18 15:06:06;;;;;;;8.13;2.70;;;;;;;;;;4948726;29;20129;-77
2022/06/18 15:08:43;;;;;;;5.82;2.40;;;;;;;;;;4948949;29;20106;-76
2022/06/18 15:11:13;;;;;;;11.75;2.90;;;;;;;;;;4938757;29;20094;-76
2022/06/18 15:13:47;;;;;;;5.90;2.55;;;;;;;;;;4913824;29;20054;-77
2022/06/18 15:24:16;;;;;;;7.28;2.70;;;;;;;;;;4934327;29;20492;-76
2022/06/18 15:26:45;;;;;;;8.52;2.80;;;;;;;;;;4917300;29;20150;-76
2022/06/18 15:29:29;;;;;;;4.82;2.25;;;;;;;;;;4928520;29;20147;-76
2022/06/18 15:32:09;;;;;;;11.93;2.65;;;;;;;;;;4912144;29;20162;-76
2022/06/18 15:34:37;;;;;;;6.20;2.63;;;;;;;;;;4929133;29;20497;-76
2022/06/18 15:37:04;;;;;;;10.02;2.40;;;;;;;;;;4928792;29;20421;-76
2022/06/18 15:39:34;;;;;;;5.55;1.95;;;;;;;;;;4929061;29;20055;-76